Аэропорт: Ульяновск-Восточный. Ульяновск

ICAO: UWLW

METAR:
Информация по данной станции не доступна
METAR:
2020-06-02 07:55:00
TAF UWLW 020755Z 0209/0309 08003G09MPS 8000 BKN020 TEMPO 0209/0216 05006G12MPS 3100 -SHRA BR BKN011 BKN016CB TEMPO 0303/0309 10007G14MPS